< < Back
Terminal Aerodrome Forecast


Current Version              Previous Versions:   1  2  3  4  5  6  7  8  9  

Terminal Aerodrome Forecast

935
FTUS42 KMLB 240900 AAA
TAFMCO
TAF AMD
KMCO 240906Z 2409/2506 00000KT P6SM SKC
      TEMPO 2410/2412 5SM BR FEW015
     FM241500 16006KT P6SM FEW035=

Latest METAR

959
SAUS70 KWBC 242200 RRQ
MTRMCO
METAR KMCO 242153Z 11012KT 10SM SCT060 BKN080 BKN100 28/18 A2993 RMK AO2
SLP133 T02830183


USA.gov is the U.S. government's official web portal to all federal, state and local government web resources and services.